createdAt,value
2018-10-15T00:02:18.523Z,63.10
2018-10-15T00:04:46.997Z,63.50
2018-10-15T00:07:17.502Z,63.20
2018-10-15T00:09:46.558Z,63.70
2018-10-15T00:12:15.000Z,64.20
2018-10-15T00:14:43.566Z,64.30
2018-10-15T00:17:12.498Z,64.20
2018-10-15T00:19:41.165Z,64.60
2018-10-15T00:22:10.330Z,64.40
2018-10-15T00:24:38.837Z,64.50
2018-10-15T00:27:07.434Z,63.80
2018-10-15T00:29:35.849Z,63.70
2018-10-15T00:32:04.436Z,63.80
2018-10-15T00:34:33.063Z,63.80
2018-10-15T00:37:01.621Z,63.60
2018-10-15T00:39:30.246Z,63.80
2018-10-15T00:41:58.762Z,63.90
2018-10-15T00:44:27.236Z,63.90
2018-10-15T00:46:55.720Z,64.00
2018-10-15T00:49:24.245Z,64.00
2018-10-15T00:51:52.778Z,64.00
2018-10-15T00:54:21.192Z,64.20
2018-10-15T00:56:49.673Z,64.70
2018-10-15T00:59:18.658Z,64.10
2018-10-15T01:01:47.034Z,63.90
2018-10-15T01:04:15.544Z,63.90
2018-10-15T01:06:43.970Z,63.90
2018-10-15T01:09:12.379Z,63.90
2018-10-15T01:11:40.769Z,65.00
2018-10-15T01:14:09.248Z,64.10
2018-10-15T01:16:37.590Z,64.00
2018-10-15T01:19:06.147Z,64.10
2018-10-15T01:21:34.575Z,64.30
2018-10-15T01:24:03.366Z,64.20
2018-10-15T01:26:36.991Z,64.50
2018-10-15T01:29:05.880Z,64.40
2018-10-15T01:31:34.302Z,64.20
2018-10-15T01:34:02.971Z,64.40
2018-10-15T01:36:31.418Z,64.40
2018-10-15T01:38:59.824Z,64.40
2018-10-15T01:41:29.227Z,64.50
2018-10-15T01:43:57.722Z,64.60
2018-10-15T01:46:26.114Z,64.70
2018-10-15T01:48:54.502Z,64.80
2018-10-15T01:51:22.881Z,64.80
2018-10-15T01:53:51.245Z,64.90
2018-10-15T01:56:19.690Z,64.90
2018-10-15T01:58:48.172Z,65.10
2018-10-15T02:01:17.029Z,65.00
2018-10-15T02:03:45.501Z,64.90
2018-10-15T02:06:14.417Z,65.30
2018-10-15T02:08:42.946Z,65.00
2018-10-15T02:11:11.472Z,65.10
2018-10-15T02:13:39.895Z,64.80
2018-10-15T02:16:08.399Z,64.80
2018-10-15T02:18:36.791Z,64.10
2018-10-15T02:21:05.274Z,65.10
2018-10-15T02:23:33.873Z,65.40
2018-10-15T02:26:02.251Z,65.40
2018-10-15T02:28:30.726Z,65.60
2018-10-15T02:30:59.250Z,64.70
2018-10-15T02:33:27.597Z,64.60
2018-10-15T02:35:55.954Z,64.50
2018-10-15T02:38:24.450Z,64.40
2018-10-15T02:40:52.802Z,64.70
2018-10-15T02:43:21.234Z,64.90
2018-10-15T02:45:49.667Z,65.10
2018-10-15T02:48:18.499Z,65.20
2018-10-15T02:50:46.852Z,65.20
2018-10-15T02:53:15.345Z,65.60
2018-10-15T02:55:43.682Z,65.90
2018-10-15T02:58:12.109Z,66.70
2018-10-15T03:00:40.498Z,67.10
2018-10-15T03:03:09.113Z,66.80
2018-10-15T03:05:37.470Z,66.20
2018-10-15T03:08:06.837Z,65.80
2018-10-15T03:10:35.286Z,65.60
2018-10-15T03:13:03.806Z,65.50
2018-10-15T03:15:32.230Z,65.40
2018-10-15T03:18:00.722Z,65.70
2018-10-15T03:20:29.106Z,65.70
2018-10-15T03:22:57.665Z,65.80
2018-10-15T03:25:26.052Z,65.80
2018-10-15T03:27:54.630Z,65.50
2018-10-15T03:30:23.063Z,65.50
2018-10-15T03:32:51.598Z,65.50
2018-10-15T03:35:20.032Z,65.50
2018-10-15T03:37:48.396Z,65.60
2018-10-15T03:40:16.839Z,65.80
2018-10-15T03:42:45.233Z,66.00
2018-10-15T03:45:13.749Z,66.00
2018-10-15T03:47:42.208Z,65.90
2018-10-15T03:50:12.054Z,65.80
2018-10-15T03:52:40.450Z,65.80
2018-10-15T03:55:08.965Z,66.00
2018-10-15T03:57:37.486Z,66.00
2018-10-15T04:00:06.764Z,65.70
2018-10-15T04:02:35.219Z,65.60
2018-10-15T04:05:03.721Z,65.50
2018-10-15T04:07:32.432Z,66.10
2018-10-15T04:10:00.902Z,65.50
2018-10-15T04:12:29.306Z,65.60
2018-10-15T04:14:58.139Z,65.50
2018-10-15T04:17:26.517Z,65.60
2018-10-15T04:19:55.026Z,65.90
2018-10-15T04:22:23.498Z,65.90
2018-10-15T04:24:52.014Z,65.80
2018-10-15T04:27:20.590Z,65.50
2018-10-15T04:29:48.959Z,65.50
2018-10-15T04:32:17.411Z,65.80
2018-10-15T04:34:45.927Z,65.50
2018-10-15T04:37:14.476Z,65.70
2018-10-15T04:39:42.863Z,65.50
2018-10-15T04:42:11.334Z,65.30
2018-10-15T04:44:39.712Z,65.20
2018-10-15T04:47:08.083Z,65.40
2018-10-15T04:49:36.694Z,65.30
2018-10-15T04:52:05.186Z,65.60
2018-10-15T04:54:33.530Z,65.60
2018-10-15T04:57:01.929Z,66.30
2018-10-15T04:59:30.307Z,65.60
2018-10-15T05:01:58.899Z,65.90
2018-10-15T05:04:27.339Z,65.40
2018-10-15T05:06:55.918Z,65.30
2018-10-15T05:09:24.389Z,65.10
2018-10-15T05:11:52.842Z,65.00
2018-10-15T05:14:21.456Z,65.00
2018-10-15T05:16:49.802Z,64.90
2018-10-15T05:19:18.323Z,65.10
2018-10-15T05:21:46.666Z,65.30
2018-10-15T05:24:15.210Z,65.20
2018-10-15T05:26:43.534Z,65.20
2018-10-15T05:29:11.917Z,65.20
2018-10-15T05:31:40.364Z,65.20
2018-10-15T05:34:08.758Z,65.40
2018-10-15T05:36:37.328Z,65.50
2018-10-15T05:39:08.305Z,65.70
2018-10-15T05:41:36.774Z,65.40
2018-10-15T05:44:05.637Z,65.40
2018-10-15T05:46:34.052Z,65.20
2018-10-15T05:49:02.454Z,64.80
2018-10-15T05:51:30.929Z,64.50
2018-10-15T05:53:59.363Z,64.80
2018-10-15T05:56:27.897Z,64.70
2018-10-15T05:58:56.334Z,64.50
2018-10-15T06:01:24.897Z,64.50
2018-10-15T06:03:53.428Z,64.40
2018-10-15T06:06:21.953Z,64.60
2018-10-15T06:08:50.232Z,64.30
2018-10-15T06:11:18.691Z,64.40
2018-10-15T06:13:47.046Z,64.30
2018-10-15T06:16:15.414Z,64.00
2018-10-15T06:18:43.766Z,64.00
2018-10-15T06:21:12.257Z,64.30
2018-10-15T06:23:40.638Z,64.60
2018-10-15T06:26:09.127Z,64.60
2018-10-15T06:28:37.568Z,64.90
2018-10-15T06:31:06.498Z,64.80
2018-10-15T06:33:35.562Z,64.90
2018-10-15T06:36:04.192Z,65.00
2018-10-15T06:38:32.625Z,64.90
2018-10-15T06:41:01.031Z,64.80
2018-10-15T06:43:29.630Z,64.70
2018-10-15T06:45:57.973Z,64.80
2018-10-15T06:48:26.385Z,64.90
2018-10-15T06:50:54.742Z,64.50
2018-10-15T06:53:23.297Z,64.80
2018-10-15T06:55:51.622Z,64.70
2018-10-15T06:58:20.164Z,65.00
2018-10-15T07:00:48.522Z,64.60
2018-10-15T07:03:16.935Z,65.00
2018-10-15T07:05:45.306Z,65.40
2018-10-15T07:08:13.650Z,64.70
2018-10-15T07:10:42.098Z,64.20
2018-10-15T07:13:10.619Z,64.80
2018-10-15T07:15:38.977Z,63.80
2018-10-15T07:18:07.465Z,63.80
2018-10-15T07:20:35.829Z,63.60
2018-10-15T07:23:04.785Z,63.40
2018-10-15T07:25:33.357Z,63.10
2018-10-15T07:28:01.994Z,63.00
2018-10-15T07:30:32.160Z,62.80
2018-10-15T07:33:00.637Z,63.10
2018-10-15T07:35:29.464Z,62.70
2018-10-15T07:37:57.826Z,62.10
2018-10-15T07:40:26.361Z,62.20
2018-10-15T07:42:54.693Z,62.20
2018-10-15T07:45:23.246Z,61.80
2018-10-15T07:47:51.751Z,61.50
2018-10-15T07:50:20.163Z,60.80
2018-10-15T07:52:48.589Z,60.50
2018-10-15T07:55:17.050Z,60.30
2018-10-15T07:57:45.496Z,59.90
2018-10-15T08:00:16.414Z,59.60
2018-10-15T08:02:45.004Z,59.50
2018-10-15T08:05:13.724Z,59.40
2018-10-15T08:07:42.137Z,58.90
2018-10-15T08:10:11.438Z,58.60
2018-10-15T08:12:40.326Z,58.50
2018-10-15T08:15:10.189Z,58.10
2018-10-15T08:17:38.635Z,58.10
2018-10-15T08:20:09.116Z,57.80
2018-10-15T08:22:37.667Z,57.60
2018-10-15T08:25:06.432Z,57.50
2018-10-15T08:27:35.145Z,57.40
2018-10-15T08:30:03.808Z,57.20
2018-10-15T08:32:32.338Z,57.10
2018-10-15T08:35:00.762Z,56.80
2018-10-15T08:37:29.176Z,56.50
2018-10-15T08:39:57.525Z,56.00
2018-10-15T08:42:26.122Z,55.50
2018-10-15T08:44:54.498Z,55.30
2018-10-15T08:47:22.962Z,55.00
2018-10-15T08:49:51.379Z,54.80
2018-10-15T08:52:19.784Z,54.80
2018-10-15T08:54:48.193Z,54.60
2018-10-15T08:57:16.766Z,54.60
2018-10-15T08:59:45.291Z,53.90
2018-10-15T09:02:13.646Z,53.40
2018-10-15T09:04:42.142Z,52.50
2018-10-15T09:07:10.692Z,52.20
2018-10-15T09:09:39.026Z,52.10
2018-10-15T09:12:07.500Z,52.10
2018-10-15T09:14:35.923Z,52.00
2018-10-15T09:17:04.394Z,51.80
2018-10-15T09:19:32.858Z,51.70
2018-10-15T09:22:01.304Z,51.30
2018-10-15T09:24:29.732Z,51.30
2018-10-15T09:26:58.205Z,51.20
2018-10-15T09:29:26.613Z,51.00
2018-10-15T09:31:55.104Z,51.10
2018-10-15T09:34:23.684Z,50.80
2018-10-15T09:36:52.027Z,50.60
2018-10-15T09:39:20.472Z,50.70
2018-10-15T09:41:48.846Z,50.10
2018-10-15T09:44:17.349Z,49.10
2018-10-15T09:46:45.891Z,48.20
2018-10-15T09:49:14.225Z,48.00
2018-10-15T09:51:42.670Z,47.60
2018-10-15T09:54:11.088Z,47.70
2018-10-15T09:56:39.743Z,47.30
2018-10-15T09:59:08.348Z,46.80
2018-10-15T10:01:42.191Z,46.50
2018-10-15T10:04:10.622Z,45.90
2018-10-15T10:06:39.334Z,45.60
2018-10-15T10:09:09.672Z,45.00
2018-10-15T10:11:38.557Z,44.80
2018-10-15T10:14:07.441Z,44.10
2018-10-15T10:16:35.854Z,43.20
2018-10-15T10:19:05.207Z,43.00
2018-10-15T10:21:33.778Z,42.70
2018-10-15T10:24:02.272Z,42.20
2018-10-15T10:26:30.692Z,41.70
2018-10-15T10:28:59.137Z,41.30
2018-10-15T10:31:27.765Z,40.80
2018-10-15T10:34:08.720Z,40.40
2018-10-15T10:36:37.643Z,40.20
2018-10-15T10:39:10.650Z,39.60
2018-10-15T10:41:39.162Z,39.40
2018-10-15T10:44:07.563Z,39.60
2018-10-15T10:46:36.106Z,39.50
2018-10-15T10:49:04.650Z,39.40
2018-10-15T10:51:33.134Z,39.00
2018-10-15T10:54:01.643Z,38.80
2018-10-15T10:56:30.061Z,38.60
2018-10-15T10:58:58.425Z,39.10
2018-10-15T11:01:26.925Z,38.60
2018-10-15T11:03:55.262Z,38.60
2018-10-15T11:06:23.643Z,38.60
2018-10-15T11:08:52.051Z,38.50
2018-10-15T11:11:20.481Z,39.00
2018-10-15T11:13:48.957Z,39.40
2018-10-15T11:16:17.454Z,39.10
2018-10-15T11:18:46.179Z,39.10
2018-10-15T11:21:14.455Z,39.40
2018-10-15T11:23:42.787Z,39.70
2018-10-15T11:26:11.225Z,39.70
2018-10-15T11:28:39.577Z,40.20
2018-10-15T11:31:08.023Z,39.90
2018-10-15T11:33:36.478Z,39.50
2018-10-15T11:36:05.005Z,40.00
2018-10-15T11:38:33.419Z,39.90
2018-10-15T11:41:01.878Z,40.00
2018-10-15T11:43:30.283Z,39.90
2018-10-15T11:45:58.632Z,39.80
2018-10-15T11:48:27.022Z,39.00
2018-10-15T11:50:55.478Z,38.40
2018-10-15T11:53:23.871Z,38.50
2018-10-15T11:55:52.427Z,38.70
2018-10-15T11:58:20.823Z,38.30
2018-10-15T12:00:49.408Z,37.40
2018-10-15T12:03:17.780Z,37.30
2018-10-15T12:05:46.223Z,37.50
2018-10-15T12:08:14.635Z,37.70
2018-10-15T12:10:43.094Z,37.50
2018-10-15T12:13:11.533Z,37.60
2018-10-15T12:15:39.989Z,37.60
2018-10-15T12:18:08.389Z,37.30
2018-10-15T12:20:36.966Z,36.90
2018-10-15T12:23:05.538Z,36.50
2018-10-15T12:25:34.030Z,35.90
2018-10-15T12:28:02.399Z,36.10
2018-10-15T12:30:30.817Z,35.70
2018-10-15T12:32:59.182Z,35.70
2018-10-15T12:35:27.717Z,35.10
2018-10-15T12:37:56.142Z,35.40
2018-10-15T12:40:24.557Z,34.80
2018-10-15T12:42:53.148Z,34.80
2018-10-15T12:45:26.951Z,34.60
2018-10-15T12:47:55.346Z,34.60
2018-10-15T12:50:23.748Z,34.60
2018-10-15T12:52:52.277Z,34.60
2018-10-15T12:55:20.627Z,34.70
2018-10-15T12:57:49.003Z,33.90
2018-10-15T13:00:17.413Z,33.30
2018-10-15T13:02:45.984Z,33.00
2018-10-15T13:05:20.862Z,32.60
2018-10-15T13:07:49.413Z,32.40
2018-10-15T13:10:17.988Z,33.00
2018-10-15T13:12:47.122Z,32.50
2018-10-15T13:15:15.674Z,32.50
2018-10-15T13:17:44.149Z,32.10
2018-10-15T13:20:12.553Z,32.00
2018-10-15T13:22:40.979Z,32.40
2018-10-15T13:25:09.810Z,32.50
2018-10-15T13:27:39.040Z,32.50
2018-10-15T13:30:08.350Z,32.40
2018-10-15T13:32:37.087Z,32.50
2018-10-15T13:35:06.803Z,32.40
2018-10-15T13:37:35.507Z,32.30
2018-10-15T13:40:04.559Z,32.40
2018-10-15T13:42:33.111Z,32.40
2018-10-15T13:45:01.837Z,32.10
2018-10-15T13:47:30.207Z,32.40
2018-10-15T13:50:05.753Z,32.60
2018-10-15T13:52:34.135Z,32.80
2018-10-15T13:55:02.554Z,31.90
2018-10-15T13:57:30.915Z,32.00
2018-10-15T14:00:00.880Z,32.40
2018-10-15T14:02:29.353Z,32.70
2018-10-15T14:04:57.914Z,33.00
2018-10-15T14:07:26.253Z,32.90
2018-10-15T14:09:54.672Z,32.90
2018-10-15T14:12:23.186Z,32.80
2018-10-15T14:14:51.591Z,32.50
2018-10-15T14:17:20.163Z,32.70
2018-10-15T14:19:48.637Z,32.80
2018-10-15T14:22:17.037Z,33.10
2018-10-15T14:24:45.500Z,33.50
2018-10-15T14:27:13.990Z,33.60
2018-10-15T14:29:42.388Z,33.70
2018-10-15T14:32:10.803Z,33.90
2018-10-15T14:34:39.243Z,34.00
2018-10-15T14:37:07.670Z,34.20
2018-10-15T14:39:36.066Z,34.40
2018-10-15T14:42:04.854Z,34.60
2018-10-15T14:44:33.257Z,35.10
2018-10-15T14:47:02.186Z,35.30
2018-10-15T14:49:30.742Z,35.50
2018-10-15T14:51:59.196Z,35.90
2018-10-15T14:54:27.639Z,35.70
2018-10-15T14:56:56.118Z,35.80
2018-10-15T14:59:24.486Z,35.90
2018-10-15T15:01:52.994Z,36.00
2018-10-15T15:04:21.521Z,36.30
2018-10-15T15:06:49.926Z,36.50
2018-10-15T15:09:29.634Z,36.80
2018-10-15T15:12:09.327Z,37.10
2018-10-15T15:14:37.744Z,37.00
2018-10-15T15:17:06.388Z,36.80
2018-10-15T15:19:34.765Z,37.00
2018-10-15T15:22:03.359Z,37.30
2018-10-15T15:24:31.872Z,37.50
2018-10-15T15:27:00.271Z,37.70
2018-10-15T15:29:28.841Z,37.90
2018-10-15T15:31:57.197Z,38.20
2018-10-15T15:34:25.585Z,38.50
2018-10-15T15:36:53.995Z,38.80
2018-10-15T15:39:22.505Z,39.10
2018-10-15T15:41:50.911Z,39.30
2018-10-15T15:44:19.515Z,39.70
2018-10-15T15:46:47.938Z,39.80
2018-10-15T15:49:16.382Z,40.00
2018-10-15T15:51:45.230Z,39.70
2018-10-15T15:54:13.644Z,40.60
2018-10-15T15:56:42.061Z,40.70
2018-10-15T15:59:10.549Z,40.80
2018-10-15T16:01:39.192Z,41.10
2018-10-15T16:04:07.628Z,41.20
2018-10-15T16:06:36.034Z,41.40
2018-10-15T16:09:06.653Z,41.70
2018-10-15T16:11:35.128Z,41.90
2018-10-15T16:14:03.502Z,42.10
2018-10-15T16:16:31.967Z,42.50
2018-10-15T16:19:00.427Z,42.60
2018-10-15T16:21:28.865Z,42.80
2018-10-15T16:23:57.456Z,42.80
2018-10-15T16:26:25.932Z,43.20
2018-10-15T16:28:54.444Z,43.30
2018-10-15T16:31:22.842Z,43.40
2018-10-15T16:33:51.276Z,43.60
2018-10-15T16:36:19.682Z,43.90
2018-10-15T16:38:48.134Z,44.10
2018-10-15T16:41:16.656Z,45.40
2018-10-15T16:43:45.048Z,45.30
2018-10-15T16:46:13.498Z,45.70
2018-10-15T16:48:41.928Z,46.10
2018-10-15T16:51:10.465Z,46.80
2018-10-15T16:53:39.038Z,47.30
2018-10-15T16:56:07.422Z,47.70
2018-10-15T16:58:35.903Z,48.60
2018-10-15T17:01:04.318Z,48.60
2018-10-15T17:03:32.741Z,48.80
2018-10-15T17:06:01.135Z,48.60
2018-10-15T17:08:29.676Z,48.60
2018-10-15T17:10:58.219Z,48.50
2018-10-15T17:13:26.704Z,48.60
2018-10-15T17:15:55.267Z,48.60
2018-10-15T17:18:23.648Z,49.00
2018-10-15T17:20:52.183Z,49.30
2018-10-15T17:23:20.559Z,49.50
2018-10-15T17:25:49.006Z,50.00
2018-10-15T17:28:17.437Z,50.80
2018-10-15T17:30:45.950Z,50.20
2018-10-15T17:33:14.595Z,50.20
2018-10-15T17:35:43.082Z,50.50
2018-10-15T17:38:11.670Z,50.50
2018-10-15T17:40:40.272Z,50.60
2018-10-15T17:43:08.899Z,50.70
2018-10-15T17:45:37.387Z,50.90
2018-10-15T17:48:05.993Z,51.00
2018-10-15T17:50:34.540Z,51.40
2018-10-15T17:53:03.051Z,51.70
2018-10-15T17:55:31.467Z,52.00
2018-10-15T17:57:59.947Z,52.10
2018-10-15T18:00:32.645Z,52.20
2018-10-15T18:03:01.272Z,52.90
2018-10-15T18:05:29.795Z,53.00
2018-10-15T18:07:58.374Z,55.60
2018-10-15T18:10:27.066Z,54.20
2018-10-15T18:12:56.847Z,53.40
2018-10-15T18:15:25.470Z,52.60
2018-10-15T18:17:54.091Z,52.70
2018-10-15T18:20:22.675Z,52.30
2018-10-15T18:22:51.124Z,51.80
2018-10-15T18:25:19.726Z,51.80
2018-10-15T18:27:48.414Z,51.60
2018-10-15T18:30:17.096Z,51.80
2018-10-15T18:32:45.629Z,51.80
2018-10-15T18:35:14.516Z,51.50
2018-10-15T18:37:43.383Z,51.50
2018-10-15T18:40:12.741Z,51.50
2018-10-15T18:42:41.446Z,51.50
2018-10-15T18:45:10.099Z,51.40
2018-10-15T18:47:39.046Z,51.10
2018-10-15T18:50:09.979Z,51.50
2018-10-15T18:52:38.415Z,51.60
2018-10-15T18:55:07.122Z,51.40
2018-10-15T18:57:35.569Z,51.50
2018-10-15T19:00:04.482Z,51.40
2018-10-15T19:02:32.888Z,51.70
2018-10-15T19:05:01.376Z,51.70
2018-10-15T19:07:29.945Z,51.90
2018-10-15T19:09:58.607Z,51.90
2018-10-15T19:12:27.204Z,51.60
2018-10-15T19:14:58.068Z,51.70
2018-10-15T19:17:27.121Z,51.70
2018-10-15T19:19:55.674Z,51.90
2018-10-15T19:22:24.523Z,52.00
2018-10-15T19:24:53.164Z,52.00
2018-10-15T19:27:21.586Z,52.00
2018-10-15T19:29:50.158Z,52.00
2018-10-15T19:32:19.157Z,52.10
2018-10-15T19:34:47.756Z,52.20
2018-10-15T19:37:16.291Z,52.20
2018-10-15T19:39:44.885Z,52.40
2018-10-15T19:42:13.890Z,52.30
2018-10-15T19:44:42.904Z,52.60
2018-10-15T19:47:11.308Z,52.30
2018-10-15T19:49:41.320Z,53.30
2018-10-15T19:52:09.858Z,52.80
2018-10-15T19:54:38.289Z,52.90
2018-10-15T19:57:07.071Z,52.50
2018-10-15T19:59:35.823Z,52.80
2018-10-15T20:02:11.058Z,53.50
2018-10-15T20:04:39.698Z,54.10
2018-10-15T20:07:08.326Z,54.90
2018-10-15T20:09:36.899Z,55.20
2018-10-15T20:12:05.595Z,55.50
2018-10-15T20:14:34.046Z,56.00
2018-10-15T20:17:02.638Z,56.20
2018-10-15T20:19:31.191Z,56.20
2018-10-15T20:21:59.736Z,56.80
2018-10-15T20:24:28.731Z,57.30
2018-10-15T20:26:57.398Z,58.30
2018-10-15T20:29:26.069Z,57.80
2018-10-15T20:31:54.509Z,58.00
2018-10-15T20:34:23.314Z,57.90
2018-10-15T20:36:52.002Z,58.10
2018-10-15T20:39:20.694Z,57.90
2018-10-15T20:41:49.458Z,58.20
2018-10-15T20:44:18.544Z,58.30
2018-10-15T20:46:47.179Z,58.50
2018-10-15T20:49:15.986Z,58.60
2018-10-15T20:51:44.434Z,58.70
2018-10-15T20:54:13.092Z,58.80
2018-10-15T20:56:42.368Z,58.90
2018-10-15T20:59:11.321Z,58.90
2018-10-15T21:01:40.098Z,59.00
2018-10-15T21:04:08.658Z,59.30
2018-10-15T21:06:37.431Z,59.30
2018-10-15T21:09:09.617Z,59.40
2018-10-15T21:11:38.349Z,59.40
2018-10-15T21:14:07.708Z,59.50
2018-10-15T21:16:36.195Z,59.90
2018-10-15T21:19:05.071Z,59.80
2018-10-15T21:21:33.663Z,59.80
2018-10-15T21:24:02.158Z,59.90
2018-10-15T21:26:30.817Z,60.10
2018-10-15T21:28:59.806Z,60.20
2018-10-15T21:31:28.600Z,60.50
2018-10-15T21:33:57.114Z,60.40
2018-10-15T21:36:25.541Z,60.50
2018-10-15T21:38:54.002Z,60.70
2018-10-15T21:41:22.545Z,60.70
2018-10-15T21:43:50.946Z,60.50
2018-10-15T21:46:19.429Z,60.50
2018-10-15T21:48:47.903Z,60.70
2018-10-15T21:51:16.285Z,60.60
2018-10-15T21:53:44.839Z,60.40
2018-10-15T21:56:13.315Z,60.50
2018-10-15T21:58:41.757Z,60.70
2018-10-15T22:01:10.215Z,60.70
2018-10-15T22:03:38.660Z,60.80
2018-10-15T22:06:07.239Z,61.10
2018-10-15T22:08:35.723Z,61.30
2018-10-15T22:11:04.298Z,61.40
2018-10-15T22:13:32.983Z,61.40
2018-10-15T22:16:01.478Z,61.60
2018-10-15T22:18:30.039Z,61.50
2018-10-15T22:20:58.448Z,61.50
2018-10-15T22:23:26.835Z,61.40
2018-10-15T22:25:55.368Z,61.30
2018-10-15T22:28:23.825Z,62.00
2018-10-15T22:30:52.323Z,61.10
2018-10-15T22:33:20.759Z,60.90
2018-10-15T22:35:49.164Z,60.90
2018-10-15T22:38:17.671Z,60.90
2018-10-15T22:40:46.066Z,60.90
2018-10-15T22:43:14.549Z,60.80
2018-10-15T22:45:42.881Z,61.10
2018-10-15T22:48:11.437Z,61.00
2018-10-15T22:50:40.141Z,61.10
2018-10-15T22:53:08.602Z,61.00
2018-10-15T22:55:37.052Z,60.90
2018-10-15T22:58:05.467Z,60.90
2018-10-15T23:00:33.870Z,60.80
2018-10-15T23:03:02.402Z,60.90
2018-10-15T23:05:30.923Z,60.70
2018-10-15T23:07:59.466Z,60.90
2018-10-15T23:10:31.907Z,61.00
2018-10-15T23:13:01.237Z,60.80
2018-10-15T23:15:29.726Z,60.80
2018-10-15T23:17:58.127Z,61.00
2018-10-15T23:20:26.607Z,60.90
2018-10-15T23:22:54.995Z,61.00
2018-10-15T23:25:23.586Z,61.00
2018-10-15T23:27:51.966Z,61.00
2018-10-15T23:30:20.469Z,61.00
2018-10-15T23:32:48.910Z,61.10
2018-10-15T23:35:17.697Z,61.30
2018-10-15T23:37:46.080Z,61.40
2018-10-15T23:40:14.960Z,61.90
2018-10-15T23:42:43.392Z,62.00
2018-10-15T23:45:12.492Z,62.30
2018-10-15T23:47:41.385Z,62.90
2018-10-15T23:50:12.312Z,62.60
2018-10-15T23:52:40.694Z,62.30
2018-10-15T23:55:10.654Z,62.10
2018-10-15T23:57:39.423Z,62.20
